MSC Barbara — HODU — position and weather

sailwx.info

Track history (hours):
 
Tides and Currents Weather Stations Pressure Air Temp Water Temp Dewpoint Dewpoint Depression Visibility Wind Speed Wind Dir Waves Ship Positions

MSC Barbara

Last reported at 2017-May-29 11:00 UTC. Time now 2017-May-29 11:17 UTC.
Position N 50°45' E 000°58'.

Length 303 m; draft 12.3 m.

Type: Ship (hazmat cat A). MMSI: 353775000.

Date/timePositionNaut miles runAvg speedWind from/ knotsBaromVisibWave heightAir tempDewpointWater temp
2017-May-29 11:00N 50°45' E 000°58'1016.1
2017-May-29 10:23N 50°51' E 001°11'616.7
2017-May-29 10:01N 50°55' E 001°18'917.5
2017-May-29 09:30N 51°01' E 001°28'917.7
2017-May-29 09:01N 51°07' E 001°38'917.5
2017-May-29 08:31N 51°14' E 001°47'714.8
2017-May-29 08:01N 51°21' E 001°52'510.7
2017-May-29 07:30N 51°25' E 001°58'510.8
2017-May-29 07:00N 51°24' E 002°07'611.6
2017-May-29 06:30N 51°21' E 002°15'5 9.9
2017-May-29 06:00N 51°22' E 002°23'510.8
2017-May-29 05:30N 51°23' E 002°31'510.7
2017-May-29 05:00N 51°24' E 002°40'510.7
2017-May-29 04:30N 51°25' E 002°48'816.7
2017-May-29 04:00N 51°25' E 003°01'816.5
2017-May-29 03:30N 51°25' E 003°15'815.5
2017-May-29 03:00N 51°25' E 003°27'612.5
2017-May-29 02:30N 51°26' E 003°37'510.5
2017-May-29 02:01N 51°23' E 003°43'713.9
2017-May-29 01:30N 51°22' E 003°54'611.6
2017-May-29 01:00N 51°26' E 004°02'511.0
2017-May-29 00:30N 51°23' E 004°09'4 7.8
2017-May-29 00:00N 51°21' E 004°15'4 7.1
2017-May-28 23:30N 51°18' E 004°16'1 1.0
2017-May-28 22:58N 51°17' E 004°15'0 0.0
2017-May-28 22:28N 51°17' E 004°15'0 0.0
2017-May-28 21:58N 51°17' E 004°15'0 0.0
2017-May-28 21:27N 51°17' E 004°15'0 0.0
2017-May-28 21:00N 51°17' E 004°15'0 0.0
2017-May-28 20:30N 51°17' E 004°15'0 0.0
2017-May-28 20:00N 51°17' E 004°15'0 0.0
2017-May-28 19:30N 51°17' E 004°15'0 0.0
2017-May-28 18:59N 51°17' E 004°15'0 0.0
2017-May-28 18:29N 51°17' E 004°15'0 0.0
2017-May-28 17:59N 51°17' E 004°15'0 0.0
2017-May-28 17:29N 51°17' E 004°15'0 0.0
2017-May-28 16:59N 51°17' E 004°15'0 0.0
2017-May-28 15:31N 51°17' E 004°15'0 0.0
2017-May-28 15:25N 51°17' E 004°15'0 0.0
2017-May-28 14:55N 51°17' E 004°15'0 0.0
2017-May-28 14:00N 51°17' E 004°15'0 0.0
2017-May-28 13:30N 51°17' E 004°15'0 0.0
2017-May-28 12:57N 51°17' E 004°15'0 0.0
2017-May-28 12:30N 51°17' E 004°15'0 0.0
2017-May-28 11:59N 51°17' E 004°15'0 0.0
2017-May-28 11:05N 51°17' E 004°15'0 0.0
2017-May-28 09:40N 51°17' E 004°15'0 0.0
2017-May-28 09:22N 51°17' E 004°15'0 0.0
2017-May-28 08:58N 51°17' E 004°15'0 0.0
2017-May-28 08:19N 51°17' E 004°15'0 0.0
2017-May-28 07:52N 51°17' E 004°15'0 0.0
2017-May-28 07:24N 51°17' E 004°15'0 0.0
2017-May-28 07:00N 51°17' E 004°15'0 0.0
2017-May-28 06:30N 51°17' E 004°15'0 0.0
2017-May-28 06:00N 51°17' E 004°15'0 0.0
2017-May-28 05:30N 51°17' E 004°15'0 0.0
2017-May-28 04:59N 51°17' E 004°15'0 0.0
2017-May-28 04:23N 51°17' E 004°15'0 0.0
2017-May-28 03:59N 51°17' E 004°15'0 0.0
2017-May-28 03:29N 51°17' E 004°15'0 0.0
2017-May-28 02:52N 51°17' E 004°15'0 0.0
2017-May-28 02:28N 51°17' E 004°15'0 0.0
2017-May-28 01:58N 51°17' E 004°15'0 0.0
2017-May-28 01:25N 51°17' E 004°15'0 0.0
2017-May-28 00:58N 51°17' E 004°15'0 0.0
2017-May-28 00:30N 51°17' E 004°15'0 0.0
2017-May-28 00:00N 51°17' E 004°15'0 0.0
2017-May-27 23:27N 51°17' E 004°15'0 0.0
2017-May-27 22:54N 51°17' E 004°15'0 0.0
2017-May-27 22:26N 51°17' E 004°15'0 0.0
2017-May-27 22:00N 51°17' E 004°15'1 1.8
2017-May-27 21:30N 51°18' E 004°16'2 4.1
2017-May-27 21:00N 51°20' E 004°16'510.0
2017-May-27 20:30N 51°24' E 004°11'611.8
2017-May-27 20:01N 51°24' E 004°02'3 6.9
2017-May-27 19:30N 51°23' E 003°57'712.8
2017-May-27 19:00N 51°22' E 003°46'713.4
2017-May-27 18:30N 51°26' E 003°39'5 9.5
2017-May-27 17:57N 51°25' E 003°31'512.4
2017-May-27 17:30N 51°24' E 003°23'917.2
2017-May-27 17:00N 51°24' E 003°09'918.3
2017-May-27 16:30N 51°25' E 002°54'816.0
2017-May-27 16:00N 51°24' E 002°42'1 2.0
2017-May-27 15:29N 51°25' E 002°40'0 0.0
2017-May-27 14:59N 51°25' E 002°40'0 0.0
2017-May-27 14:28N 51°25' E 002°40'0 0.5
2017-May-27 13:30N 51°24' E 002°41'510.6
2017-May-27 13:00N 51°22' E 002°33'713.7
2017-May-27 12:30N 51°20' E 002°23'713.3
2017-May-27 12:00N 51°18' E 002°13'5 9.8
2017-May-27 11:29N 51°19' E 002°05'511.3
2017-May-27 11:00N 51°23' E 001°59'611.9
2017-May-27 10:30N 51°28' E 001°54'612.3
2017-May-27 10:00N 51°34' E 001°49'612.1
2017-May-27 09:30N 51°39' E 001°45'612.9
2017-May-27 09:00N 51°46' E 001°44'611.7
2017-May-27 08:30N 51°51' E 001°41'5 9.1
2017-May-27 08:00N 51°52' E 001°34'611.4
2017-May-27 07:31N 51°56' E 001°27'510.9
2017-May-27 07:00N 51°56' E 001°19'1 2.6
2017-May-27 06:30N 51°58' E 001°18'0 0.0
2017-May-27 05:59N 51°58' E 001°18'0 0.0
2017-May-27 05:29N 51°58' E 001°18'0 0.0
2017-May-27 04:59N 51°58' E 001°18'0 0.0
2017-May-27 04:29N 51°58' E 001°18'0 0.0
2017-May-27 03:59N 51°58' E 001°18'0 0.0
2017-May-27 03:28N 51°58' E 001°18'0 0.0
2017-May-27 02:58N 51°58' E 001°18'0 0.0
2017-May-27 02:28N 51°58' E 001°18'0 0.0
2017-May-27 01:58N 51°58' E 001°18'0 0.0
2017-May-27 01:27N 51°58' E 001°18'0 0.0
2017-May-27 01:00N 51°58' E 001°18'0 0.0
2017-May-27 00:30N 51°58' E 001°18'0 0.0
2017-May-27 00:00N 51°58' E 001°18'0 0.0
2017-May-26 23:30N 51°58' E 001°18'0 0.0
2017-May-26 22:59N 51°58' E 001°18'0 0.0
2017-May-26 22:29N 51°58' E 001°18'0 0.0
2017-May-26 21:59N 51°58' E 001°18'0 0.0
2017-May-26 21:29N 51°58' E 001°18'0 0.0
2017-May-26 20:59N 51°58' E 001°18'0 0.0
2017-May-26 20:28N 51°58' E 001°18'0 0.0
2017-May-26 19:58N 51°58' E 001°18'0 0.0
2017-May-26 19:28N 51°58' E 001°18'0 0.0
2017-May-26 18:58N 51°58' E 001°18'0 0.0
2017-May-26 18:31N 51°58' E 001°18'0 0.0
2017-May-26 18:00N 51°58' E 001°18'0 0.0
2017-May-26 17:30N 51°58' E 001°18'0 0.0
2017-May-26 17:00N 51°58' E 001°18'0 0.0
2017-May-26 16:30N 51°58' E 001°18'0 0.0
2017-May-26 15:59N 51°58' E 001°18'0 0.0
2017-May-26 15:29N 51°58' E 001°18'0 0.0
2017-May-26 14:59N 51°58' E 001°18'0 0.0
2017-May-26 14:29N 51°58' E 001°18'0 0.0
2017-May-26 13:28N 51°58' E 001°18'0 0.0
2017-May-26 12:58N 51°58' E 001°18'0 0.0
2017-May-26 12:28N 51°58' E 001°18'0 0.0
2017-May-26 11:58N 51°58' E 001°18'0 0.0
2017-May-26 11:30N 51°58' E 001°18'0 0.0
2017-May-26 11:00N 51°58' E 001°18'0 0.0
2017-May-26 10:30N 51°58' E 001°18'0 0.0
2017-May-26 10:00N 51°58' E 001°18'1 1.3
2017-May-26 09:30N 51°57' E 001°18'3 5.9
2017-May-26 09:00N 51°56' E 001°23'713.9
2017-May-26 08:30N 51°54' E 001°34'510.5
2017-May-26 08:00N 51°51' E 001°41'510.2
2017-May-26 07:30N 51°50' E 001°49'613.0
2017-May-26 07:00N 51°52' E 001°59'1019.8
2017-May-26 06:30N 51°56' E 002°13'1020.0
2017-May-26 06:00N 52°03' E 002°26'918.4
2017-May-26 05:30N 52°09' E 002°37'917.7
2017-May-26 05:00N 52°14' E 002°49'1417.6
2017-May-26 04:12N 52°22' E 003°08'2017.3
2017-May-26 03:01N 52°38' E 003°30'317.3
2017-May-26 02:51N 52°40' E 003°33'617.4
2017-May-26 02:30N 52°44' E 003°39'917.4
2017-May-26 02:00N 52°51' E 003°49'917.7
2017-May-26 01:30N 52°57' E 003°59'918.5
2017-May-26 01:00N 53°03' E 004°10'1019.2
2017-May-26 00:30N 53°10' E 004°22'1019.8
2017-May-26 00:00N 53°19' E 004°30'1020.2
2017-May-25 23:30N 53°28' E 004°38'1019.9
2017-May-25 23:00N 53°33' E 004°52'1020.3
2017-May-25 22:30N 53°36' E 005°08'1019.6
2017-May-25 21:59N 53°39' E 005°24'5218.5
2017-May-25 19:10N 53°54' E 006°49'317.4
2017-May-25 19:00N 53°54' E 006°54'3615.5
2017-May-25 16:40N 53°52' E 007°56'818.6
2017-May-25 16:15N 53°49' E 008°07'619.0
2017-May-25 15:57N 53°44' E 008°14'918.4
2017-May-25 15:27N 53°39' E 008°25'6 7.7
2017-May-25 14:43N 53°35' E 008°32'0 0.0
2017-May-25 14:25N 53°35' E 008°32'0 0.0
2017-May-25 12:48N 53°35' E 008°32'0 0.0
2017-May-25 11:48N 53°35' E 008°32'0 0.0
2017-May-25 10:05N 53°35' E 008°32'0 0.0
2017-May-25 09:47N 53°35' E 008°32'0 0.0
2017-May-25 09:23N 53°35' E 008°32'0 0.0
2017-May-25 08:22N 53°35' E 008°32'0 0.0
2017-May-24 19:13N 53°35' E 008°32'0 0.0
2017-May-24 16:51N 53°35' E 008°32'0 0.0
2017-May-24 15:39N 53°35' E 008°32'0 0.0
2017-May-24 15:09N 53°35' E 008°32'0 0.0
2017-May-24 14:57N 53°35' E 008°32'0 0.0
2017-May-24 14:26N 53°35' E 008°32'0 0.0
2017-May-24 12:32N 53°35' E 008°32'0 0.0
2017-May-24 12:29N 53°35' E 008°32'0 0.0
2017-May-24 11:55N 53°35' E 008°32'0 0.0
2017-May-24 11:22N 53°35' E 008°32'0 0.0
2017-May-24 10:52N 53°35' E 008°32'0 0.0
2017-May-24 10:16N 53°35' E 008°32'0 0.0
2017-May-24 10:00N 53°35' E 008°32'0 0.0
2017-May-24 09:27N 53°35' E 008°32'0 0.0
2017-May-24 09:00N 53°35' E 008°32'0 0.0
2017-May-24 08:30N 53°35' E 008°32'0 0.0
2017-May-24 08:00N 53°35' E 008°32'0 0.0
2017-May-24 07:26N 53°35' E 008°32'0 0.0
2017-May-24 05:59N 53°35' E 008°32'0 0.0
2017-May-24 05:29N 53°35' E 008°32'0 0.0
2017-May-24 04:52N 53°35' E 008°32'0 0.0
2017-May-24 04:28N 53°35' E 008°32'0 0.0
2017-May-24 03:57N 53°35' E 008°32'0 0.0
2017-May-24 03:25N 53°35' E 008°32'0 0.0
2017-May-24 02:18N 53°35' E 008°32'0 0.0
2017-May-24 01:51N 53°35' E 008°32'0 0.0
2017-May-24 01:21N 53°35' E 008°32'0 0.0
2017-May-24 00:57N 53°35' E 008°32'0 0.0
2017-May-24 00:20N 53°35' E 008°32'0 0.0
2017-May-23 23:56N 53°35' E 008°32'0 0.0
2017-May-23 23:02N 53°35' E 008°32'0 0.0
2017-May-23 22:56N 53°35' E 008°32'0 0.0
2017-May-23 22:25N 53°35' E 008°32'0 0.0
2017-May-23 21:49N 53°35' E 008°32'0 0.0
2017-May-23 19:21N 53°35' E 008°32'0 0.0
2017-May-23 18:54N 53°35' E 008°32'0 0.0
2017-May-23 18:24N 53°35' E 008°32'0 0.0
2017-May-23 17:57N 53°35' E 008°32'0 0.0
2017-May-23 17:23N 53°35' E 008°32'0 0.0
2017-May-23 16:14N 53°35' E 008°32'0 0.0
2017-May-23 15:53N 53°35' E 008°32'0 0.0
2017-May-23 13:28N 53°35' E 008°32'0 0.0
2017-May-23 10:02N 53°35' E 008°32'0 0.0
2017-May-23 06:55N 53°35' E 008°32'0 0.0
2017-May-23 06:25N 53°35' E 008°32'0 0.0
2017-May-23 05:18N 53°35' E 008°32'0 0.0
2017-May-23 04:57N 53°35' E 008°32'0 0.0
2017-May-23 03:29N 53°35' E 008°32'0 0.0
2017-May-23 02:53N 53°35' E 008°32'0 0.0
2017-May-23 02:29N 53°35' E 008°32'0 0.1
2017-May-23 01:59N 53°34' E 008°32'0 0.0
2017-May-23 01:28N 53°34' E 008°32'0 0.0
2017-May-23 00:52N 53°34' E 008°32'0 0.0
2017-May-23 00:28N 53°34' E 008°32'0 0.0
2017-May-22 23:58N 53°34' E 008°32'0 0.0
2017-May-22 23:25N 53°34' E 008°32'0 0.0
2017-May-22 23:00N 53°34' E 008°32'0 0.0
2017-May-22 22:21N 53°34' E 008°32'0 0.0
2017-May-22 21:57N 53°34' E 008°32'0 0.0
2017-May-22 21:24N 53°34' E 008°32'0 0.0
2017-May-22 20:57N 53°34' E 008°32'0 0.0
2017-May-22 20:17N 53°34' E 008°32'0 0.0
2017-May-22 19:50N 53°34' E 008°32'0 0.0
2017-May-22 11:53N 53°34' E 008°32'0 0.0
2017-May-22 09:34N 53°34' E 008°32'0 0.0
2017-May-22 09:09N 53°34' E 008°32'0 0.0
2017-May-22 09:00N 53°34' E 008°32'0 0.0
2017-May-22 08:18N 53°34' E 008°32'0 0.0
2017-May-22 07:57N 53°34' E 008°32'0 0.0
2017-May-22 07:30N 53°34' E 008°32'0 0.0
2017-May-22 06:56N 53°34' E 008°32'0 0.2
2017-May-22 06:31N 53°34' E 008°32'2 4.2
2017-May-22 06:01N 53°36' E 008°30'611.7
2017-May-22 05:30N 53°40' E 008°23'714.5
2017-May-22 05:00N 53°45' E 008°13'913.2
2017-May-22 04:21N 53°51' E 008°03'616.6
2017-May-22 03:59N 53°52' E 007°53'3 0.5
2017-May-21 21:35N 53°56' E 007°53'0 0.0
2017-May-21 20:16N 53°56' E 007°53'0 0.0
2017-May-21 04:39N 53°56' E 007°53'0 0.0
2017-May-21 04:15N 53°56' E 007°53'0 0.0
2017-May-21 03:57N 53°56' E 007°53'0 0.0
2017-May-20 18:59N 53°56' E 007°53'0 0.0
2017-May-20 14:59N 53°56' E 007°53'3 6.0
2017-May-20 14:30N 53°56' E 007°48'10610.1
2017-May-20 04:04N 53°27' E 004°57'110.3
2017-May-20 03:58N 53°27' E 004°55'2610.0
2017-May-20 01:19N 53°06' E 004°27'310.6
2017-May-20 01:00N 53°03' E 004°25'710.7
2017-May-20 00:22N 52°57' E 004°20'410.8
2017-May-20 00:01N 52°53' E 004°17'611.1
2017-May-19 23:31N 52°49' E 004°12'611.5
2017-May-19 23:01N 52°45' E 004°05'611.3
2017-May-19 22:31N 52°41' E 003°59'611.1
2017-May-19 22:01N 52°37' E 003°53'711.1
2017-May-19 21:25N 52°32' E 003°45'511.2
2017-May-19 20:58N 52°28' E 003°40'4310.3
2017-May-19 16:49N 51°48' E 003°16'3 7.2
2017-May-19 16:27N 51°45' E 003°16'511.3
2017-May-19 15:58N 51°40' E 003°12'817.1
2017-May-19 15:30N 51°33' E 003°08'917.4
2017-May-19 15:01N 51°26' E 002°60'1717.1
2017-May-19 14:00N 51°25' E 003°27'713.1
2017-May-19 13:31N 51°26' E 003°38'610.9
2017-May-19 13:00N 51°23' E 003°44'812.9
2017-May-19 12:24N 51°23' E 003°56'410.2
2017-May-19 11:59N 51°25' E 004°02'611.4
2017-May-19 11:27N 51°24' E 004°11'  
Track history (hours):
 
Tides and Currents Weather Stations Pressure Air Temp Water Temp Dewpoint Dewpoint Depression Visibility Wind Speed Wind Dir Waves Ship Positions

MSC Barbara

Last reported at 2017-May-29 11:00 UTC. Time now 2017-May-29 11:17 UTC.
Position N 50°45' E 000°58'.

Length 303 m; draft 12.3 m.

Type: Ship (hazmat cat A). MMSI: 353775000.

Date/timePositionNaut miles runAvg speedWind from/ knotsBaromVisibWave heightAir tempDewpointWater temp
2017-May-29 11:00N 50°45' E 000°58'1016.1
2017-May-29 10:23N 50°51' E 001°11'616.7
2017-May-29 10:01N 50°55' E 001°18'917.5
2017-May-29 09:30N 51°01' E 001°28'917.7
2017-May-29 09:01N 51°07' E 001°38'917.5
2017-May-29 08:31N 51°14' E 001°47'714.8
2017-May-29 08:01N 51°21' E 001°52'510.7
2017-May-29 07:30N 51°25' E 001°58'510.8
2017-May-29 07:00N 51°24' E 002°07'611.6
2017-May-29 06:30N 51°21' E 002°15'5 9.9
2017-May-29 06:00N 51°22' E 002°23'510.8
2017-May-29 05:30N 51°23' E 002°31'510.7
2017-May-29 05:00N 51°24' E 002°40'510.7
2017-May-29 04:30N 51°25' E 002°48'816.7
2017-May-29 04:00N 51°25' E 003°01'816.5
2017-May-29 03:30N 51°25' E 003°15'815.5
2017-May-29 03:00N 51°25' E 003°27'612.5
2017-May-29 02:30N 51°26' E 003°37'510.5
2017-May-29 02:01N 51°23' E 003°43'713.9
2017-May-29 01:30N 51°22' E 003°54'611.6
2017-May-29 01:00N 51°26' E 004°02'511.0
2017-May-29 00:30N 51°23' E 004°09'4 7.8
2017-May-29 00:00N 51°21' E 004°15'4 7.1
2017-May-28 23:30N 51°18' E 004°16'1 1.0
2017-May-28 22:58N 51°17' E 004°15'0 0.0
2017-May-28 22:28N 51°17' E 004°15'0 0.0
2017-May-28 21:58N 51°17' E 004°15'0 0.0
2017-May-28 21:27N 51°17' E 004°15'0 0.0
2017-May-28 21:00N 51°17' E 004°15'0 0.0
2017-May-28 20:30N 51°17' E 004°15'0 0.0
2017-May-28 20:00N 51°17' E 004°15'0 0.0
2017-May-28 19:30N 51°17' E 004°15'0 0.0
2017-May-28 18:59N 51°17' E 004°15'0 0.0
2017-May-28 18:29N 51°17' E 004°15'0 0.0
2017-May-28 17:59N 51°17' E 004°15'0 0.0
2017-May-28 17:29N 51°17' E 004°15'0 0.0
2017-May-28 16:59N 51°17' E 004°15'0 0.0
2017-May-28 15:31N 51°17' E 004°15'0 0.0
2017-May-28 15:25N 51°17' E 004°15'0 0.0
2017-May-28 14:55N 51°17' E 004°15'0 0.0
2017-May-28 14:00N 51°17' E 004°15'0 0.0
2017-May-28 13:30N 51°17' E 004°15'0 0.0
2017-May-28 12:57N 51°17' E 004°15'0 0.0
2017-May-28 12:30N 51°17' E 004°15'0 0.0
2017-May-28 11:59N 51°17' E 004°15'0 0.0
2017-May-28 11:05N 51°17' E 004°15'0 0.0
2017-May-28 09:40N 51°17' E 004°15'0 0.0
2017-May-28 09:22N 51°17' E 004°15'0 0.0
2017-May-28 08:58N 51°17' E 004°15'0 0.0
2017-May-28 08:19N 51°17' E 004°15'0 0.0
2017-May-28 07:52N 51°17' E 004°15'0 0.0
2017-May-28 07:24N 51°17' E 004°15'0 0.0
2017-May-28 07:00N 51°17' E 004°15'0 0.0
2017-May-28 06:30N 51°17' E 004°15'0 0.0
2017-May-28 06:00N 51°17' E 004°15'0 0.0
2017-May-28 05:30N 51°17' E 004°15'0 0.0
2017-May-28 04:59N 51°17' E 004°15'0 0.0
2017-May-28 04:23N 51°17' E 004°15'0 0.0
2017-May-28 03:59N 51°17' E 004°15'0 0.0
2017-May-28 03:29N 51°17' E 004°15'0 0.0
2017-May-28 02:52N 51°17' E 004°15'0 0.0
2017-May-28 02:28N 51°17' E 004°15'0 0.0
2017-May-28 01:58N 51°17' E 004°15'0 0.0
2017-May-28 01:25N 51°17' E 004°15'0 0.0
2017-May-28 00:58N 51°17' E 004°15'0 0.0
2017-May-28 00:30N 51°17' E 004°15'0 0.0
2017-May-28 00:00N 51°17' E 004°15'0 0.0
2017-May-27 23:27N 51°17' E 004°15'0 0.0
2017-May-27 22:54N 51°17' E 004°15'0 0.0
2017-May-27 22:26N 51°17' E 004°15'0 0.0
2017-May-27 22:00N 51°17' E 004°15'1 1.8
2017-May-27 21:30N 51°18' E 004°16'2 4.1
2017-May-27 21:00N 51°20' E 004°16'510.0
2017-May-27 20:30N 51°24' E 004°11'611.8
2017-May-27 20:01N 51°24' E 004°02'3 6.9
2017-May-27 19:30N 51°23' E 003°57'712.8
2017-May-27 19:00N 51°22' E 003°46'713.4
2017-May-27 18:30N 51°26' E 003°39'5 9.5
2017-May-27 17:57N 51°25' E 003°31'512.4
2017-May-27 17:30N 51°24' E 003°23'917.2
2017-May-27 17:00N 51°24' E 003°09'918.3
2017-May-27 16:30N 51°25' E 002°54'816.0
2017-May-27 16:00N 51°24' E 002°42'1 2.0
2017-May-27 15:29N 51°25' E 002°40'0 0.0
2017-May-27 14:59N 51°25' E 002°40'0 0.0
2017-May-27 14:28N 51°25' E 002°40'0 0.5
2017-May-27 13:30N 51°24' E 002°41'510.6
2017-May-27 13:00N 51°22' E 002°33'713.7
2017-May-27 12:30N 51°20' E 002°23'713.3
2017-May-27 12:00N 51°18' E 002°13'5 9.8
2017-May-27 11:29N 51°19' E 002°05'511.3
2017-May-27 11:00N 51°23' E 001°59'611.9
2017-May-27 10:30N 51°28' E 001°54'612.3
2017-May-27 10:00N 51°34' E 001°49'612.1
2017-May-27 09:30N 51°39' E 001°45'612.9
2017-May-27 09:00N 51°46' E 001°44'611.7
2017-May-27 08:30N 51°51' E 001°41'5 9.1
2017-May-27 08:00N 51°52' E 001°34'611.4
2017-May-27 07:31N 51°56' E 001°27'510.9
2017-May-27 07:00N 51°56' E 001°19'1 2.6
2017-May-27 06:30N 51°58' E 001°18'0 0.0
2017-May-27 05:59N 51°58' E 001°18'0 0.0
2017-May-27 05:29N 51°58' E 001°18'0 0.0
2017-May-27 04:59N 51°58' E 001°18'0 0.0
2017-May-27 04:29N 51°58' E 001°18'0 0.0
2017-May-27 03:59N 51°58' E 001°18'0 0.0
2017-May-27 03:28N 51°58' E 001°18'0 0.0
2017-May-27 02:58N 51°58' E 001°18'0 0.0
2017-May-27 02:28N 51°58' E 001°18'0 0.0
2017-May-27 01:58N 51°58' E 001°18'0 0.0
2017-May-27 01:27N 51°58' E 001°18'0 0.0
2017-May-27 01:00N 51°58' E 001°18'0 0.0
2017-May-27 00:30N 51°58' E 001°18'0 0.0
2017-May-27 00:00N 51°58' E 001°18'0 0.0
2017-May-26 23:30N 51°58' E 001°18'0 0.0
2017-May-26 22:59N 51°58' E 001°18'0 0.0
2017-May-26 22:29N 51°58' E 001°18'0 0.0
2017-May-26 21:59N 51°58' E 001°18'0 0.0
2017-May-26 21:29N 51°58' E 001°18'0 0.0
2017-May-26 20:59N 51°58' E 001°18'0 0.0
2017-May-26 20:28N 51°58' E 001°18'0 0.0
2017-May-26 19:58N 51°58' E 001°18'0 0.0
2017-May-26 19:28N 51°58' E 001°18'0 0.0
2017-May-26 18:58N 51°58' E 001°18'0 0.0
2017-May-26 18:31N 51°58' E 001°18'0 0.0
2017-May-26 18:00N 51°58' E 001°18'0 0.0
2017-May-26 17:30N 51°58' E 001°18'0 0.0
2017-May-26 17:00N 51°58' E 001°18'0 0.0
2017-May-26 16:30N 51°58' E 001°18'0 0.0
2017-May-26 15:59N 51°58' E 001°18'0 0.0
2017-May-26 15:29N 51°58' E 001°18'0 0.0
2017-May-26 14:59N 51°58' E 001°18'0 0.0
2017-May-26 14:29N 51°58' E 001°18'0 0.0
2017-May-26 13:28N 51°58' E 001°18'0 0.0
2017-May-26 12:58N 51°58' E 001°18'0 0.0
2017-May-26 12:28N 51°58' E 001°18'0 0.0
2017-May-26 11:58N 51°58' E 001°18'0 0.0
2017-May-26 11:30N 51°58' E 001°18'0 0.0
2017-May-26 11:00N 51°58' E 001°18'0 0.0
2017-May-26 10:30N 51°58' E 001°18'0 0.0
2017-May-26 10:00N 51°58' E 001°18'1 1.3
2017-May-26 09:30N 51°57' E 001°18'3 5.9
2017-May-26 09:00N 51°56' E 001°23'713.9
2017-May-26 08:30N 51°54' E 001°34'510.5
2017-May-26 08:00N 51°51' E 001°41'510.2
2017-May-26 07:30N 51°50' E 001°49'613.0
2017-May-26 07:00N 51°52' E 001°59'1019.8
2017-May-26 06:30N 51°56' E 002°13'1020.0
2017-May-26 06:00N 52°03' E 002°26'918.4
2017-May-26 05:30N 52°09' E 002°37'917.7
2017-May-26 05:00N 52°14' E 002°49'1417.6
2017-May-26 04:12N 52°22' E 003°08'2017.3
2017-May-26 03:01N 52°38' E 003°30'317.3
2017-May-26 02:51N 52°40' E 003°33'617.4
2017-May-26 02:30N 52°44' E 003°39'917.4
2017-May-26 02:00N 52°51' E 003°49'917.7
2017-May-26 01:30N 52°57' E 003°59'918.5
2017-May-26 01:00N 53°03' E 004°10'1019.2
2017-May-26 00:30N 53°10' E 004°22'1019.8
2017-May-26 00:00N 53°19' E 004°30'1020.2
2017-May-25 23:30N 53°28' E 004°38'1019.9
2017-May-25 23:00N 53°33' E 004°52'1020.3
2017-May-25 22:30N 53°36' E 005°08'1019.6
2017-May-25 21:59N 53°39' E 005°24'5218.5
2017-May-25 19:10N 53°54' E 006°49'317.4
2017-May-25 19:00N 53°54' E 006°54'3615.5
2017-May-25 16:40N 53°52' E 007°56'818.6
2017-May-25 16:15N 53°49' E 008°07'619.0
2017-May-25 15:57N 53°44' E 008°14'918.4
2017-May-25 15:27N 53°39' E 008°25'6 7.7
2017-May-25 14:43N 53°35' E 008°32'0 0.0
2017-May-25 14:25N 53°35' E 008°32'0 0.0
2017-May-25 12:48N 53°35' E 008°32'0 0.0
2017-May-25 11:48N 53°35' E 008°32'0 0.0
2017-May-25 10:05N 53°35' E 008°32'0 0.0
2017-May-25 09:47N 53°35' E 008°32'0 0.0
2017-May-25 09:23N 53°35' E 008°32'0 0.0
2017-May-25 08:22N 53°35' E 008°32'0 0.0
2017-May-24 19:13N 53°35' E 008°32'0 0.0
2017-May-24 16:51N 53°35' E 008°32'0 0.0
2017-May-24 15:39N 53°35' E 008°32'0 0.0
2017-May-24 15:09N 53°35' E 008°32'0 0.0
2017-May-24 14:57N 53°35' E 008°32'0 0.0
2017-May-24 14:26N 53°35' E 008°32'0 0.0
2017-May-24 12:32N 53°35' E 008°32'0 0.0
2017-May-24 12:29N 53°35' E 008°32'0 0.0
2017-May-24 11:55N 53°35' E 008°32'0 0.0
2017-May-24 11:22N 53°35' E 008°32'0 0.0
2017-May-24 10:52N 53°35' E 008°32'0 0.0
2017-May-24 10:16N 53°35' E 008°32'0 0.0
2017-May-24 10:00N 53°35' E 008°32'0 0.0
2017-May-24 09:27N 53°35' E 008°32'0 0.0
2017-May-24 09:00N 53°35' E 008°32'0 0.0
2017-May-24 08:30N 53°35' E 008°32'0 0.0
2017-May-24 08:00N 53°35' E 008°32'0 0.0
2017-May-24 07:26N 53°35' E 008°32'0 0.0
2017-May-24 05:59N 53°35' E 008°32'0 0.0
2017-May-24 05:29N 53°35' E 008°32'0 0.0
2017-May-24 04:52N 53°35' E 008°32'0 0.0
2017-May-24 04:28N 53°35' E 008°32'0 0.0
2017-May-24 03:57N 53°35' E 008°32'0 0.0
2017-May-24 03:25N 53°35' E 008°32'0 0.0
2017-May-24 02:18N 53°35' E 008°32'0 0.0
2017-May-24 01:51N 53°35' E 008°32'0 0.0
2017-May-24 01:21N 53°35' E 008°32'0 0.0
2017-May-24 00:57N 53°35' E 008°32'0 0.0
2017-May-24 00:20N 53°35' E 008°32'0 0.0
2017-May-23 23:56N 53°35' E 008°32'0 0.0
2017-May-23 23:02N 53°35' E 008°32'0 0.0
2017-May-23 22:56N 53°35' E 008°32'0 0.0
2017-May-23 22:25N 53°35' E 008°32'0 0.0
2017-May-23 21:49N 53°35' E 008°32'0 0.0
2017-May-23 19:21N 53°35' E 008°32'0 0.0
2017-May-23 18:54N 53°35' E 008°32'0 0.0
2017-May-23 18:24N 53°35' E 008°32'0 0.0
2017-May-23 17:57N 53°35' E 008°32'0 0.0
2017-May-23 17:23N 53°35' E 008°32'0 0.0
2017-May-23 16:14N 53°35' E 008°32'0 0.0
2017-May-23 15:53N 53°35' E 008°32'0 0.0
2017-May-23 13:28N 53°35' E 008°32'0 0.0
2017-May-23 10:02N 53°35' E 008°32'0 0.0
2017-May-23 06:55N 53°35' E 008°32'0 0.0
2017-May-23 06:25N 53°35' E 008°32'0 0.0
2017-May-23 05:18N 53°35' E 008°32'0 0.0
2017-May-23 04:57N 53°35' E 008°32'0 0.0
2017-May-23 03:29N 53°35' E 008°32'0 0.0
2017-May-23 02:53N 53°35' E 008°32'0 0.0
2017-May-23 02:29N 53°35' E 008°32'0 0.1
2017-May-23 01:59N 53°34' E 008°32'0 0.0
2017-May-23 01:28N 53°34' E 008°32'0 0.0
2017-May-23 00:52N 53°34' E 008°32'0 0.0
2017-May-23 00:28N 53°34' E 008°32'0 0.0
2017-May-22 23:58N 53°34' E 008°32'0 0.0
2017-May-22 23:25N 53°34' E 008°32'0 0.0
2017-May-22 23:00N 53°34' E 008°32'0 0.0
2017-May-22 22:21N 53°34' E 008°32'0 0.0
2017-May-22 21:57N 53°34' E 008°32'0 0.0
2017-May-22 21:24N 53°34' E 008°32'0 0.0
2017-May-22 20:57N 53°34' E 008°32'0 0.0
2017-May-22 20:17N 53°34' E 008°32'0 0.0
2017-May-22 19:50N 53°34' E 008°32'0 0.0
2017-May-22 11:53N 53°34' E 008°32'0 0.0
2017-May-22 09:34N 53°34' E 008°32'0 0.0
2017-May-22 09:09N 53°34' E 008°32'0 0.0
2017-May-22 09:00N 53°34' E 008°32'0 0.0
2017-May-22 08:18N 53°34' E 008°32'0 0.0
2017-May-22 07:57N 53°34' E 008°32'0 0.0
2017-May-22 07:30N 53°34' E 008°32'0 0.0
2017-May-22 06:56N 53°34' E 008°32'0 0.2
2017-May-22 06:31N 53°34' E 008°32'2 4.2
2017-May-22 06:01N 53°36' E 008°30'611.7
2017-May-22 05:30N 53°40' E 008°23'714.5
2017-May-22 05:00N 53°45' E 008°13'913.2
2017-May-22 04:21N 53°51' E 008°03'616.6
2017-May-22 03:59N 53°52' E 007°53'3 0.5
2017-May-21 21:35N 53°56' E 007°53'0 0.0
2017-May-21 20:16N 53°56' E 007°53'0 0.0
2017-May-21 04:39N 53°56' E 007°53'0 0.0
2017-May-21 04:15N 53°56' E 007°53'0 0.0
2017-May-21 03:57N 53°56' E 007°53'0 0.0
2017-May-20 18:59N 53°56' E 007°53'0 0.0
2017-May-20 14:59N 53°56' E 007°53'3 6.0
2017-May-20 14:30N 53°56' E 007°48'10610.1
2017-May-20 04:04N 53°27' E 004°57'110.3
2017-May-20 03:58N 53°27' E 004°55'2610.0
2017-May-20 01:19N 53°06' E 004°27'310.6
2017-May-20 01:00N 53°03' E 004°25'710.7
2017-May-20 00:22N 52°57' E 004°20'410.8
2017-May-20 00:01N 52°53' E 004°17'611.1
2017-May-19 23:31N 52°49' E 004°12'611.5
2017-May-19 23:01N 52°45' E 004°05'611.3
2017-May-19 22:31N 52°41' E 003°59'611.1
2017-May-19 22:01N 52°37' E 003°53'711.1
2017-May-19 21:25N 52°32' E 003°45'511.2
2017-May-19 20:58N 52°28' E 003°40'4310.3
2017-May-19 16:49N 51°48' E 003°16'3 7.2
2017-May-19 16:27N 51°45' E 003°16'511.3
2017-May-19 15:58N 51°40' E 003°12'817.1
2017-May-19 15:30N 51°33' E 003°08'917.4
2017-May-19 15:01N 51°26' E 002°60'1717.1
2017-May-19 14:00N 51°25' E 003°27'713.1
2017-May-19 13:31N 51°26' E 003°38'610.9
2017-May-19 13:00N 51°23' E 003°44'812.9
2017-May-19 12:24N 51°23' E 003°56'410.2
2017-May-19 11:59N 51°25' E 004°02'611.4
2017-May-19 11:27N 51°24' E 004°11'  

Dump ship's entire track history